Time;durP1;ratioP1;P1;durP2;ratioP2;P2;SDS_P1;SDS_P2;PMS_P1;PMS_P2;Temp;Humidity;BMP_temperature;BMP_pressure;BME280_temperature;BME280_humidity;BME280_pressure;Samples;Min_cycle;Max_cycle;Signal;HPM_P1;HPM_P2
2023/10/11 00:00:33;;;;;;;11.02;4.05;;;16.20;99.90;;;;;;5013031;28;20513;-88
2023/10/11 00:03:15;;;;;;;9.07;3.60;;;16.20;99.90;;;;;;5005440;28;20041;-87
2023/10/11 00:05:41;;;;;;;8.15;4.07;;;16.20;99.90;;;;;;4979640;28;20505;-90
2023/10/11 00:08:16;;;;;;;7.28;3.65;;;16.20;99.90;;;;;;4988278;28;20030;-88
2023/10/11 00:10:47;;;;;;;11.77;3.90;;;16.20;99.90;;;;;;4986524;28;20518;-89
2023/10/11 00:13:17;;;;;;;9.27;4.00;;;16.20;99.90;;;;;;4992348;28;20022;-89
2023/10/11 00:15:51;;;;;;;8.85;3.80;;;16.20;99.90;;;;;;5000626;28;20387;-89
2023/10/11 00:18:24;;;;;;;8.27;3.80;;;16.20;99.90;;;;;;4992870;28;20079;-87
2023/10/11 00:20:51;;;;;;;11.10;4.40;;;16.20;99.90;;;;;;4983154;28;20501;-89
2023/10/11 00:23:22;;;;;;;7.78;4.32;;;16.20;99.90;;;;;;4994987;28;20077;-88
2023/10/11 00:25:51;;;;;;;10.27;3.97;;;16.20;99.90;;;;;;4989998;28;20116;-88
2023/10/11 00:28:22;;;;;;;11.85;4.22;;;16.20;99.90;;;;;;4991687;28;20029;-90
2023/10/11 00:30:50;;;;;;;8.52;3.92;;;16.10;99.90;;;;;;4979895;28;20049;-88
2023/10/11 00:33:15;;;;;;;10.30;3.72;;;16.20;99.90;;;;;;4991817;28;20046;-88
2023/10/11 00:35:48;;;;;;;10.25;4.15;;;16.20;99.90;;;;;;4988126;28;20140;-88
2023/10/11 00:38:19;;;;;;;6.72;3.90;;;16.20;99.90;;;;;;4989221;28;20060;-88
2023/10/11 00:41:06;;;;;;;8.77;3.65;;;16.20;99.90;;;;;;4996227;28;20033;-88
2023/10/11 00:43:36;;;;;;;13.50;4.13;;;16.20;99.90;;;;;;4991015;28;20394;-88
2023/10/11 00:46:08;;;;;;;10.32;3.88;;;16.20;99.90;;;;;;4995859;28;20026;-88
2023/10/11 00:48:43;;;;;;;7.65;3.80;;;16.20;99.90;;;;;;4991451;28;20390;-88
2023/10/11 00:51:10;;;;;;;9.02;3.70;;;16.20;99.90;;;;;;4994210;28;20029;-88
2023/10/11 00:53:36;;;;;;;6.93;3.78;;;16.20;99.90;;;;;;4987807;28;20055;-89
2023/10/11 00:56:05;;;;;;;11.40;4.45;;;16.20;99.90;;;;;;4997599;28;20119;-88
2023/10/11 00:58:31;;;;;;;8.27;4.15;;;16.20;99.90;;;;;;4991442;28;20478;-88
2023/10/11 01:01:00;;;;;;;9.20;4.47;;;16.20;99.90;;;;;;4991213;28;20033;-88
2023/10/11 01:03:31;;;;;;;8.98;3.88;;;16.20;99.90;;;;;;5001230;28;20030;-89
2023/10/11 01:05:58;;;;;;;8.95;3.88;;;16.20;99.90;;;;;;4989857;28;20025;-88
2023/10/11 01:08:24;;;;;;;10.25;3.90;;;16.20;99.90;;;;;;4992574;28;20632;-88
2023/10/11 01:10:50;;;;;;;9.65;3.35;;;16.20;99.90;;;;;;4994537;28;20065;-89
2023/10/11 01:13:18;;;;;;;9.48;3.85;;;16.20;99.90;;;;;;4992877;28;20022;-87
2023/10/11 01:15:44;;;;;;;9.10;4.47;;;16.30;99.90;;;;;;4991637;28;20500;-88
2023/10/11 01:18:12;;;;;;;7.45;3.63;;;16.20;99.90;;;;;;4988679;28;20117;-88
2023/10/11 01:20:40;;;;;;;7.75;3.38;;;16.20;99.90;;;;;;4997626;28;20044;-88
2023/10/11 01:23:06;;;;;;;8.60;3.17;;;16.20;99.90;;;;;;4987283;28;20115;-88
2023/10/11 01:25:31;;;;;;;5.88;2.67;;;16.20;99.90;;;;;;4990750;28;20141;-88
2023/10/11 01:27:57;;;;;;;7.28;3.85;;;16.20;99.90;;;;;;4987062;28;20578;-88
2023/10/11 01:30:26;;;;;;;7.40;3.42;;;16.10;99.90;;;;;;4982167;28;20050;-88
2023/10/11 01:32:54;;;;;;;10.65;3.63;;;16.20;99.90;;;;;;4997045;28;20453;-88
2023/10/11 01:35:20;;;;;;;12.10;4.38;;;16.10;99.90;;;;;;4989449;28;20096;-88
2023/10/11 01:37:46;;;;;;;6.82;3.45;;;16.20;99.90;;;;;;4984271;28;20026;-88
2023/10/11 01:40:20;;;;;;;7.90;3.63;;;16.10;99.90;;;;;;4998193;28;20092;-89
2023/10/11 01:42:49;;;;;;;7.72;4.00;;;16.10;99.90;;;;;;4998470;28;20379;-88
2023/10/11 01:45:18;;;;;;;12.60;4.05;;;16.10;99.90;;;;;;4992143;28;20033;-89
2023/10/11 01:47:46;;;;;;;6.63;3.28;;;16.10;99.90;;;;;;4997355;28;20022;-89
2023/10/11 01:50:15;;;;;;;7.25;3.95;;;16.20;99.90;;;;;;4982515;28;20030;-88
2023/10/11 01:52:42;;;;;;;7.53;3.05;;;16.10;99.90;;;;;;4994320;28;20026;-88
2023/10/11 01:55:11;;;;;;;10.15;3.35;;;16.10;99.90;;;;;;4989604;28;20053;-88
2023/10/11 01:57:45;;;;;;;7.63;3.78;;;16.10;99.90;;;;;;4989631;28;20080;-88
2023/10/11 02:00:15;;;;;;;8.35;3.45;;;16.10;99.90;;;;;;5001643;28;20148;-89
2023/10/11 02:02:55;;;;;;;14.15;3.92;;;16.10;99.90;;;;;;4990310;28;20475;-89
2023/10/11 02:05:24;;;;;;;6.45;3.25;;;16.10;99.90;;;;;;4991604;28;20029;-89
2023/10/11 02:07:50;;;;;;;6.50;3.42;;;16.10;99.90;;;;;;4997525;28;20037;-89
2023/10/11 02:10:25;;;;;;;8.93;3.80;;;16.10;99.90;;;;;;4990733;28;20030;-89
2023/10/11 02:12:52;;;;;;;8.70;3.92;;;16.00;99.90;;;;;;5000390;28;20033;-88
2023/10/11 02:15:21;;;;;;;8.75;3.53;;;16.00;99.90;;;;;;4997277;28;20030;-88
2023/10/11 02:17:54;;;;;;;8.45;3.75;;;16.00;99.90;;;;;;4999712;28;20033;-89
2023/10/11 02:20:22;;;;;;;10.80;3.97;;;16.00;99.90;;;;;;4996009;28;20070;-88
2023/10/11 02:22:55;;;;;;;7.97;3.85;;;16.00;99.90;;;;;;4994724;28;20025;-88
2023/10/11 02:25:24;;;;;;;10.40;4.20;;;16.00;99.90;;;;;;4996605;28;20033;-88
2023/10/11 02:27:51;;;;;;;9.90;3.67;;;15.90;99.90;;;;;;4998231;28;20113;-88
2023/10/11 02:30:27;;;;;;;10.35;4.80;;;15.90;99.90;;;;;;5001772;28;20045;-89
2023/10/11 02:32:58;;;;;;;7.18;3.50;;;15.90;99.90;;;;;;4994530;28;20129;-89
2023/10/11 02:35:27;;;;;;;7.97;4.07;;;15.90;99.90;;;;;;4997559;28;20037;-87
2023/10/11 02:37:55;;;;;;;9.27;3.88;;;15.80;99.90;;;;;;4992168;28;20185;-88
2023/10/11 02:40:24;;;;;;;8.02;4.25;;;15.80;99.90;;;;;;4991221;28;20033;-88
2023/10/11 02:42:55;;;;;;;10.25;4.75;;;15.70;99.90;;;;;;4995309;28;20112;-88
2023/10/11 02:45:22;;;;;;;8.53;5.07;;;15.80;99.90;;;;;;4995740;28;20034;-89
2023/10/11 02:47:59;;;;;;;8.30;4.00;;;15.70;99.90;;;;;;4997253;28;20970;-88
2023/10/11 02:50:25;;;;;;;10.32;4.95;;;15.60;99.90;;;;;;4991492;28;20591;-89
2023/10/11 02:52:58;;;;;;;10.85;5.13;;;15.60;99.90;;;;;;4985384;28;20030;-88
2023/10/11 02:55:24;;;;;;;17.70;5.25;;;15.60;99.90;;;;;;4994039;28;20033;-87
2023/10/11 02:58:08;;;;;;;9.05;4.40;;;15.50;99.90;;;;;;4996447;28;20457;-87
2023/10/11 03:00:35;;;;;;;8.32;4.38;;;15.50;99.90;;;;;;4983103;28;20037;-88
2023/10/11 03:03:01;;;;;;;11.05;4.60;;;15.40;99.90;;;;;;4983241;28;20092;-88
2023/10/11 03:05:27;;;;;;;11.80;5.32;;;15.40;99.90;;;;;;4996110;28;20022;-87
2023/10/11 03:08:17;;;;;;;14.50;5.50;;;15.40;99.90;;;;;;4980321;28;20026;-88
2023/10/11 03:10:44;;;;;;;13.35;5.28;;;15.30;99.90;;;;;;4991237;28;20033;-88
2023/10/11 03:13:24;;;;;;;7.68;4.68;;;15.30;99.90;;;;;;4995469;28;20026;-89
2023/10/11 03:15:55;;;;;;;15.43;5.45;;;15.30;99.90;;;;;;4996268;28;20093;-88
2023/10/11 03:18:32;;;;;;;8.63;4.35;;;15.20;99.90;;;;;;4993815;28;20112;-87
2023/10/11 03:21:09;;;;;;;9.35;4.60;;;15.20;99.90;;;;;;4994523;28;20509;-88
2023/10/11 03:23:45;;;;;;;8.43;4.95;;;15.10;99.90;;;;;;4986500;28;20554;-88
2023/10/11 03:26:16;;;;;;;9.45;5.30;;;15.10;99.90;;;;;;4990514;28;20106;-88
2023/10/11 03:28:43;;;;;;;12.40;5.32;;;15.10;99.90;;;;;;4988967;28;20405;-87
2023/10/11 03:31:12;;;;;;;11.90;5.45;;;15.00;99.90;;;;;;4991290;28;20133;-88
2023/10/11 03:33:40;;;;;;;15.25;6.05;;;15.10;99.90;;;;;;4992043;28;20030;-88
2023/10/11 03:36:17;;;;;;;9.40;5.50;;;15.10;99.90;;;;;;4991763;28;20033;-88
2023/10/11 03:38:50;;;;;;;11.55;5.50;;;15.10;99.90;;;;;;4988387;28;20034;-89
2023/10/11 03:41:16;;;;;;;13.25;5.82;;;15.00;99.90;;;;;;4989651;28;20029;-89
2023/10/11 03:43:42;;;;;;;13.40;6.00;;;15.00;99.90;;;;;;4981666;28;20027;-89
2023/10/11 03:46:10;;;;;;;10.40;5.70;;;15.00;99.90;;;;;;4996019;28;20084;-88
2023/10/11 03:48:44;;;;;;;11.75;5.82;;;15.00;99.90;;;;;;4988190;28;20036;-88
2023/10/11 03:51:10;;;;;;;12.52;5.40;;;15.00;99.90;;;;;;4992200;28;20486;-88
2023/10/11 03:53:39;;;;;;;9.95;5.13;;;15.00;99.90;;;;;;4990141;28;20088;-88
2023/10/11 03:56:07;;;;;;;10.82;5.35;;;14.90;99.90;;;;;;4991856;28;20022;-90
2023/10/11 03:58:33;;;;;;;8.50;5.60;;;14.90;99.90;;;;;;4994886;28;20022;-88
2023/10/11 04:03:43;;;;;;;15.07;5.97;;;14.90;99.90;;;;;;5011318;28;20021;-87
2023/10/11 04:06:19;;;;;;;11.00;5.45;;;14.90;99.90;;;;;;4995183;28;20076;-89
2023/10/11 04:09:21;;;;;;;11.45;5.72;;;14.90;99.90;;;;;;4992477;28;20031;-88
2023/10/11 04:11:37;;;;;;;12.02;6.63;;;14.90;99.90;;;;;;5002512;28;20041;-88
2023/10/11 04:14:23;;;;;;;12.00;6.03;;;14.90;99.90;;;;;;4992223;28;20076;-89
2023/10/11 04:16:52;;;;;;;10.32;6.15;;;14.90;99.90;;;;;;4995383;28;20580;-88
2023/10/11 04:19:21;;;;;;;10.10;5.75;;;14.90;99.90;;;;;;4981061;28;20461;-88
2023/10/11 04:24:19;;;;;;;14.18;6.97;;;14.90;99.90;;;;;;5013061;28;20057;-88
2023/10/11 04:26:53;;;;;;;11.35;6.20;;;14.90;99.90;;;;;;4983520;28;20023;-88
2023/10/11 04:29:23;;;;;;;9.75;5.30;;;14.90;99.90;;;;;;4987698;28;20033;-88
2023/10/11 04:34:32;;;;;;;11.73;6.60;;;14.90;99.90;;;;;;5005912;28;20057;-87
2023/10/11 04:36:59;;;;;;;13.73;6.22;;;14.90;99.90;;;;;;4993030;28;20062;-86
2023/10/11 04:39:28;;;;;;;13.15;6.55;;;14.90;99.90;;;;;;4983314;28;20070;-88
2023/10/11 04:41:59;;;;;;;11.55;6.47;;;14.90;99.90;;;;;;4982438;28;20077;-89
2023/10/11 04:44:30;;;;;;;12.90;6.55;;;14.90;99.90;;;;;;4988799;28;20033;-88
2023/10/11 04:47:00;;;;;;;13.45;6.38;;;14.90;99.90;;;;;;4994372;28;20026;-88
2023/10/11 04:49:30;;;;;;;10.50;6.15;;;14.90;99.90;;;;;;5001563;28;20478;-89
2023/10/11 04:51:57;;;;;;;12.82;6.40;;;14.90;99.90;;;;;;4993467;28;20478;-88
2023/10/11 04:54:35;;;;;;;9.18;6.13;;;14.90;99.90;;;;;;4984008;28;20462;-88
2023/10/11 04:57:06;;;;;;;11.55;6.47;;;14.80;99.90;;;;;;4993313;28;20072;-88
2023/10/11 05:02:16;;;;;;;11.55;5.55;;;14.80;99.90;;;;;;5012874;28;20121;-87
2023/10/11 05:04:44;;;;;;;11.57;6.00;;;14.80;99.90;;;;;;4990543;28;20571;-89
2023/10/11 05:07:10;;;;;;;14.32;5.75;;;14.80;99.90;;;;;;4994254;28;20026;-88
2023/10/11 05:09:40;;;;;;;9.85;5.45;;;14.80;99.90;;;;;;4988172;28;20474;-88
2023/10/11 05:12:12;;;;;;;11.30;6.28;;;14.80;99.90;;;;;;4997777;28;20022;-89
2023/10/11 05:14:56;;;;;;;11.60;6.10;;;14.80;99.90;;;;;;5013113;28;20105;-89
2023/10/11 05:22:35;;;;;;;12.07;6.17;;;14.70;99.90;;;;;;5001527;28;20023;-89
2023/10/11 05:30:16;;;;;;;13.77;6.25;;;14.70;99.90;;;;;;5011863;28;20502;-89
2023/10/11 05:52:02;;;;;;;11.18;6.82;;;14.70;99.90;;;;;;5005367;28;20045;-88
2023/10/11 05:54:34;;;;;;;14.25;7.05;;;14.70;99.90;;;;;;4985994;28;21162;-89
2023/10/11 05:57:03;;;;;;;12.88;7.15;;;14.70;99.90;;;;;;4989644;28;20505;-88
2023/10/11 05:59:31;;;;;;;12.35;6.93;;;14.70;99.90;;;;;;4997031;28;20030;-88
2023/10/11 06:01:57;;;;;;;12.25;7.28;;;14.70;99.90;;;;;;4983389;28;20018;-88
2023/10/11 06:04:23;;;;;;;13.18;6.45;;;14.70;99.90;;;;;;4996150;28;20373;-88
2023/10/11 06:06:57;;;;;;;13.52;6.97;;;14.80;99.90;;;;;;4995271;28;20022;-88
2023/10/11 06:09:26;;;;;;;13.48;6.70;;;14.70;99.90;;;;;;4996249;28;20032;-88
2023/10/11 06:11:52;;;;;;;15.32;7.35;;;14.80;99.90;;;;;;4993114;28;20117;-88
2023/10/11 06:14:19;;;;;;;12.63;7.20;;;14.80;99.90;;;;;;4983825;28;20065;-87
2023/10/11 06:16:49;;;;;;;13.48;7.57;;;14.80;99.90;;;;;;4983702;28;20034;-89
2023/10/11 06:19:16;;;;;;;13.35;6.55;;;14.80;99.90;;;;;;4988195;28;20038;-88
2023/10/11 06:21:59;;;;;;;12.90;7.22;;;14.90;99.90;;;;;;4998604;28;20026;-89
2023/10/11 06:24:32;;;;;;;16.73;7.10;;;14.90;99.90;;;;;;4997542;28;20486;-89
2023/10/11 06:29:37;;;;;;;13.13;6.95;;;14.90;99.90;;;;;;4998055;28;20038;-88
2023/10/11 06:32:11;;;;;;;14.90;7.43;;;14.90;99.90;;;;;;5006986;28;21808;-88
2023/10/11 06:34:37;;;;;;;15.27;7.85;;;15.00;99.90;;;;;;5003581;28;20478;-87
2023/10/11 06:37:02;;;;;;;16.85;7.97;;;15.00;99.90;;;;;;4991482;28;20117;-87
2023/10/11 06:42:18;;;;;;;16.13;8.27;;;15.10;99.90;;;;;;5000577;28;20177;-88
2023/10/11 06:44:47;;;;;;;14.93;7.95;;;15.10;99.90;;;;;;4992903;28;20374;-90
2023/10/11 06:47:13;;;;;;;17.17;8.45;;;15.20;99.90;;;;;;5003172;28;20116;-89
2023/10/11 06:49:44;;;;;;;14.02;8.18;;;15.30;99.90;;;;;;4997180;28;20063;-88
2023/10/11 06:52:19;;;;;;;10.93;7.70;;;15.40;99.90;;;;;;4997839;28;20136;-87
2023/10/11 06:54:46;;;;;;;12.18;7.32;;;15.50;99.90;;;;;;4985574;28;20057;-88
2023/10/11 06:57:21;;;;;;;15.65;7.97;;;15.50;99.90;;;;;;4993232;28;20030;-88
2023/10/11 06:59:50;;;;;;;14.27;8.88;;;15.70;99.90;;;;;;5013683;28;20390;-88
2023/10/11 07:02:31;;;;;;;17.83;8.13;;;15.70;99.90;;;;;;4997579;28;20037;-88
2023/10/11 07:04:58;;;;;;;17.60;8.57;;;15.80;99.90;;;;;;4997511;28;20490;-88
2023/10/11 07:07:25;;;;;;;16.35;9.10;;;15.80;99.90;;;;;;4995352;28;20091;-87
2023/10/11 07:09:56;;;;;;;14.73;8.82;;;15.90;99.90;;;;;;5012993;28;20100;-88
2023/10/11 07:12:28;;;;;;;19.63;9.03;;;16.00;99.90;;;;;;4991857;28;20026;-87
2023/10/11 07:14:57;;;;;;;16.40;8.82;;;16.00;99.90;;;;;;4990313;28;20033;-87
2023/10/11 07:17:24;;;;;;;17.65;9.65;;;16.10;99.90;;;;;;4997372;28;20062;-88
2023/10/11 07:19:50;;;;;;;15.27;8.90;;;16.10;99.90;;;;;;4997954;28;20042;-87
2023/10/11 07:22:18;;;;;;;18.90;9.20;;;16.10;99.90;;;;;;4991304;28;20072;-88
2023/10/11 07:24:45;;;;;;;14.40;8.55;;;16.20;99.90;;;;;;4994627;28;20030;-88
2023/10/11 07:27:26;;;;;;;16.98;8.95;;;16.20;99.90;;;;;;4994978;28;20474;-87
2023/10/11 07:29:54;;;;;;;17.27;9.73;;;16.30;99.90;;;;;;4998372;28;20046;-88
2023/10/11 07:32:21;;;;;;;16.73;8.50;;;16.30;99.90;;;;;;5015870;28;20096;-88
2023/10/11 07:34:48;;;;;;;18.00;9.15;;;16.30;99.90;;;;;;4998576;28;20216;-87
2023/10/11 07:37:18;;;;;;;18.45;8.70;;;16.40;99.90;;;;;;4995389;28;20390;-86
2023/10/11 07:39:47;;;;;;;19.33;8.27;;;16.50;99.90;;;;;;4980746;28;20111;-87
2023/10/11 07:42:18;;;;;;;18.67;9.90;;;16.50;99.90;;;;;;4996667;28;20026;-86
2023/10/11 07:44:50;;;;;;;21.23;10.77;;;16.50;99.90;;;;;;4984978;28;20165;-86
2023/10/11 07:47:16;;;;;;;18.63;9.00;;;16.60;99.90;;;;;;4996676;28;20320;-87
2023/10/11 07:49:42;;;;;;;16.65;9.57;;;16.60;99.90;;;;;;4996598;28;20037;-86
2023/10/11 07:52:09;;;;;;;19.58;9.82;;;16.70;99.90;;;;;;4994186;28;20084;-86
2023/10/11 07:54:39;;;;;;;19.27;9.63;;;16.70;99.90;;;;;;4996827;28;20026;-87
2023/10/11 07:57:16;;;;;;;20.70;10.77;;;16.80;99.90;;;;;;4995775;28;20540;-85
2023/10/11 07:59:42;;;;;;;15.57;9.88;;;16.90;99.90;;;;;;4999579;28;20473;-88
2023/10/11 08:02:08;;;;;;;20.10;10.65;;;16.90;99.90;;;;;;4995917;28;20381;-86
2023/10/11 08:04:35;;;;;;;16.13;9.65;;;16.90;99.90;;;;;;4996913;28;20391;-85
2023/10/11 08:07:03;;;;;;;16.10;9.60;;;16.90;99.90;;;;;;4996368;28;20072;-86
2023/10/11 08:09:45;;;;;;;18.13;10.57;;;16.90;99.90;;;;;;4995798;28;20088;-86
2023/10/11 08:12:11;;;;;;;21.88;10.85;;;16.80;99.90;;;;;;4989668;28;20601;-85
2023/10/11 08:14:39;;;;;;;18.50;9.80;;;16.80;99.90;;;;;;4992359;28;20038;-85
2023/10/11 08:17:10;;;;;;;17.50;10.45;;;16.80;99.90;;;;;;4989859;28;20315;-89
2023/10/11 08:19:36;;;;;;;18.63;10.52;;;16.90;99.90;;;;;;4989158;28;20034;-90
2023/10/11 08:22:09;;;;;;;17.65;10.68;;;16.90;99.90;;;;;;4979298;28;20026;-90
2023/10/11 08:24:58;;;;;;;22.70;11.20;;;17.00;99.90;;;;;;4981882;28;20072;-94
2023/10/11 08:29:54;;;;;;;15.20;9.75;;;17.20;99.90;;;;;;5008813;28;20076;-86
2023/10/11 08:32:25;;;;;;;17.17;10.45;;;17.30;99.90;;;;;;4997223;28;20041;-87
2023/10/11 08:34:51;;;;;;;20.10;10.90;;;17.40;99.90;;;;;;5003159;28;20033;-88
2023/10/11 08:37:17;;;;;;;18.45;10.45;;;17.50;99.90;;;;;;4992130;28;20128;-88
2023/10/11 08:39:44;;;;;;;19.38;10.77;;;17.60;99.90;;;;;;4995644;28;20490;-86
2023/10/11 08:42:11;;;;;;;18.42;10.30;;;17.70;99.90;;;;;;4990549;28;20494;-87
2023/10/11 08:44:40;;;;;;;18.52;11.45;;;17.70;99.90;;;;;;4981030;28;20034;-87
2023/10/11 08:47:06;;;;;;;21.15;10.93;;;17.70;99.90;;;;;;4975934;28;20037;-87
2023/10/11 08:49:41;;;;;;;18.55;10.25;;;17.60;99.90;;;;;;5009366;28;20033;-86
2023/10/11 08:52:10;;;;;;;18.25;10.48;;;17.70;99.90;;;;;;5006188;28;20109;-86
2023/10/11 08:54:36;;;;;;;22.35;12.45;;;17.70;99.90;;;;;;5010065;28;20041;-87
2023/10/11 08:57:03;;;;;;;22.27;12.65;;;17.70;99.90;;;;;;4990923;28;20081;-88
2023/10/11 08:59:31;;;;;;;23.85;13.90;;;17.70;99.90;;;;;;5003345;28;20038;-86
2023/10/11 09:02:07;;;;;;;23.42;14.23;;;17.60;99.90;;;;;;4985333;28;20023;-86
2023/10/11 09:04:35;;;;;;;25.10;14.45;;;17.60;99.90;;;;;;5007793;28;20113;-87
2023/10/11 09:07:01;;;;;;;27.63;14.93;;;17.40;99.90;;;;;;5007269;28;20015;-87
2023/10/11 09:09:39;;;;;;;22.65;14.00;;;17.40;99.90;;;;;;4982583;28;20062;-86
2023/10/11 09:12:23;;;;;;;25.25;15.02;;;17.40;99.90;;;;;;5006945;28;20021;-86
2023/10/11 09:15:05;;;;;;;26.65;15.45;;;17.30;99.90;;;;;;4995012;28;20025;-87
2023/10/11 09:17:38;;;;;;;28.38;16.45;;;17.30;99.90;;;;;;4995417;28;20134;-86
2023/10/11 09:20:23;;;;;;;24.85;16.85;;;17.30;99.90;;;;;;4989682;28;20046;-87
2023/10/11 09:22:55;;;;;;;31.55;18.13;;;17.40;99.90;;;;;;4989992;28;20030;-88
2023/10/11 09:25:21;;;;;;;;;;;17.40;99.90;;;;;;4995290;28;20125;-88
2023/10/11 09:27:51;;;;;;;31.65;17.83;;;17.40;99.90;;;;;;4994822;28;19940;-87
2023/10/11 09:30:21;;;;;;;32.35;16.60;;;17.50;99.90;;;;;;4988382;28;20030;-87
2023/10/11 09:32:49;;;;;;;34.40;17.33;;;17.50;99.90;;;;;;4995663;28;20117;-87
2023/10/11 09:35:26;;;;;;;25.70;17.17;;;17.50;99.90;;;;;;4991739;28;20081;-86
2023/10/11 09:37:55;;;;;;;26.95;17.38;;;17.60;99.90;;;;;;4994360;28;20038;-87
2023/10/11 09:40:27;;;;;;;30.73;18.33;;;17.50;99.90;;;;;;4989702;28;20049;-87
2023/10/11 09:42:57;;;;;;;26.52;17.58;;;17.60;99.90;;;;;;4976195;28;20574;-87
2023/10/11 09:45:28;;;;;;;29.52;18.42;;;17.60;99.90;;;;;;4981429;28;20033;-89
2023/10/11 09:47:54;;;;;;;31.77;18.23;;;17.60;99.90;;;;;;4993924;28;20025;-87
2023/10/11 09:50:24;;;;;;;27.05;17.45;;;17.60;99.90;;;;;;4990776;28;20115;-87
2023/10/11 09:52:53;;;;;;;28.60;18.02;;;17.70;99.90;;;;;;4987683;28;20029;-88
2023/10/11 09:55:31;;;;;;;28.35;17.85;;;17.70;99.90;;;;;;5000192;28;20033;-87
2023/10/11 09:58:17;;;;;;;27.50;17.75;;;17.70;99.90;;;;;;4992740;28;20029;-88
2023/10/11 10:00:58;;;;;;;31.55;18.75;;;17.70;99.90;;;;;;5007099;28;20402;-87
2023/10/11 10:03:24;;;;;;;29.13;17.67;;;17.70;99.90;;;;;;4994155;28;20023;-88
2023/10/11 10:06:18;;;;;;;31.58;19.30;;;17.70;99.90;;;;;;4987181;28;20199;-88
2023/10/11 10:09:30;;;;;;;31.23;19.17;;;17.60;99.90;;;;;;4998130;28;20027;-88
2023/10/11 10:12:06;;;;;;;28.15;17.05;;;17.70;99.90;;;;;;5006075;28;20037;-88
2023/10/11 10:14:35;;;;;;;33.42;19.83;;;17.70;99.90;;;;;;4998449;28;20037;-88
2023/10/11 10:17:12;;;;;;;32.03;18.92;;;17.70;99.90;;;;;;5015205;28;20084;-88
2023/10/11 10:19:51;;;;;;;31.23;18.63;;;17.80;99.90;;;;;;4992212;28;20041;-88
2023/10/11 10:22:23;;;;;;;31.45;18.70;;;17.80;99.90;;;;;;4979278;28;20034;-87
2023/10/11 10:24:54;;;;;;;34.90;19.63;;;17.80;99.90;;;;;;4985835;28;20027;-88
2023/10/11 10:27:34;;;;;;;28.87;18.97;;;17.80;99.90;;;;;;5007271;28;20037;-88
2023/10/11 10:30:03;;;;;;;31.63;19.13;;;17.80;99.90;;;;;;5009611;28;20343;-88
2023/10/11 10:32:29;;;;;;;31.27;19.27;;;17.80;99.90;;;;;;4995421;28;20109;-89
2023/10/11 10:35:18;;;;;;;33.05;20.85;;;17.80;99.90;;;;;;4995149;28;20115;-87
2023/10/11 10:37:49;;;;;;;31.13;16.58;;;17.80;99.90;;;;;;4994768;28;20577;-86
2023/10/11 10:40:28;;;;;;;33.63;19.13;;;17.90;99.90;;;;;;5004617;28;20042;-89
2023/10/11 10:43:14;;;;;;;38.63;19.10;;;17.90;99.90;;;;;;4986952;28;20034;-88
2023/10/11 10:45:42;;;;;;;35.33;19.73;;;17.90;99.90;;;;;;4986712;28;20038;-88
2023/10/11 10:48:18;;;;;;;34.13;19.38;;;18.00;99.90;;;;;;4986173;28;20029;-88
2023/10/11 10:51:01;;;;;;;30.73;18.92;;;17.90;99.90;;;;;;4989336;28;20418;-89
2023/10/11 10:53:42;;;;;;;31.08;18.00;;;17.90;99.90;;;;;;4996555;28;20026;-87
2023/10/11 10:56:24;;;;;;;32.95;17.55;;;18.00;99.90;;;;;;4994062;28;20026;-89
2023/10/11 10:59:03;;;;;;;32.00;16.92;;;18.00;99.90;;;;;;4997497;28;20152;-87
2023/10/11 11:01:29;;;;;;;27.55;16.65;;;18.00;99.90;;;;;;4987250;28;20037;-87
2023/10/11 11:03:58;;;;;;;31.20;15.60;;;18.00;99.90;;;;;;4994571;28;20382;-88
2023/10/11 11:06:24;;;;;;;25.33;15.85;;;18.00;99.90;;;;;;4994951;28;20048;-87
2023/10/11 11:08:49;;;;;;;30.20;16.23;;;18.10;99.90;;;;;;4996762;28;20022;-87
2023/10/11 11:11:36;;;;;;;26.88;15.73;;;18.10;99.90;;;;;;4995052;28;20019;-88
2023/10/11 11:14:19;;;;;;;27.55;15.75;;;18.20;99.90;;;;;;5007551;28;20034;-88
2023/10/11 11:16:54;;;;;;;23.70;14.00;;;18.20;99.90;;;;;;5011808;28;20018;-87
2023/10/11 11:19:25;;;;;;;23.58;14.40;;;18.30;99.90;;;;;;4995442;28;20034;-87
2023/10/11 11:22:06;;;;;;;22.08;13.30;;;18.40;99.90;;;;;;4993448;28;20028;-87
2023/10/11 11:24:34;;;;;;;22.85;13.48;;;18.50;99.90;;;;;;4996577;28;20021;-87
2023/10/11 11:27:14;;;;;;;22.45;13.50;;;18.60;99.90;;;;;;4992310;28;20030;-89
2023/10/11 11:29:40;;;;;;;23.70;14.15;;;18.70;99.90;;;;;;4993959;28;20164;-87
2023/10/11 11:32:16;;;;;;;20.42;12.13;;;18.90;99.90;;;;;;4988784;28;20136;-88
2023/10/11 11:35:02;;;;;;;23.55;12.02;;;18.90;99.90;;;;;;4995477;28;20113;-88
2023/10/11 11:37:29;;;;;;;21.45;12.45;;;19.10;99.90;;;;;;4982493;28;20035;-88
2023/10/11 11:40:17;;;;;;;20.67;11.57;;;19.30;99.90;;;;;;4978969;28;20050;-89
2023/10/11 11:42:47;;;;;;;23.88;12.88;;;19.40;99.90;;;;;;5001437;28;20033;-87
2023/10/11 11:45:20;;;;;;;19.48;11.95;;;19.50;99.90;;;;;;4993877;28;20073;-87
2023/10/11 11:47:58;;;;;;;22.65;12.00;;;19.60;99.90;;;;;;5008850;28;20029;-87
2023/10/11 11:50:25;;;;;;;19.40;10.98;;;19.80;99.90;;;;;;4992960;28;20539;-88
2023/10/11 11:52:50;;;;;;;20.08;11.55;;;19.70;99.90;;;;;;4996037;28;20026;-87
2023/10/11 11:55:20;;;;;;;26.00;12.23;;;19.70;99.90;;;;;;4989851;28;20041;-90
2023/10/11 11:57:47;;;;;;;17.90;12.05;;;19.60;99.90;;;;;;4989460;28;20029;-90
2023/10/11 12:00:38;;;;;;;24.13;12.18;;;19.50;99.90;;;;;;4989117;28;20062;-88
2023/10/11 12:03:04;;;;;;;20.75;11.52;;;19.50;99.90;;;;;;4993460;28;20040;-88
2023/10/11 12:05:37;;;;;;;19.92;12.48;;;19.50;99.90;;;;;;4993127;28;20390;-88
2023/10/11 12:08:06;;;;;;;22.67;12.10;;;19.40;99.90;;;;;;4981542;28;20034;-89
2023/10/11 12:10:33;;;;;;;23.65;13.10;;;19.40;99.90;;;;;;4977737;28;20542;-89
2023/10/11 12:13:05;;;;;;;19.70;12.13;;;19.40;99.90;;;;;;4984161;28;20109;-89
2023/10/11 12:15:31;;;;;;;;;;;19.40;99.90;;;;;;4996517;28;20022;-89
2023/10/11 12:17:57;;;;;;;21.13;12.40;;;19.40;99.90;;;;;;4996236;28;19909;-89
2023/10/11 12:20:27;;;;;;;26.45;16.40;;;19.40;99.90;;;;;;4996381;28;20821;-88
2023/10/11 12:22:53;;;;;;;28.83;16.25;;;19.50;99.90;;;;;;4989876;28;20406;-89
2023/10/11 12:25:24;;;;;;;26.50;16.08;;;19.50;99.90;;;;;;4980378;28;20030;-89
2023/10/11 12:27:50;;;;;;;22.73;15.38;;;19.50;99.90;;;;;;4976919;28;20114;-89
2023/10/11 12:30:22;;;;;;;25.17;16.90;;;19.60;99.90;;;;;;4994551;28;20124;-87
2023/10/11 12:32:48;;;;;;;27.45;18.63;;;19.50;99.90;;;;;;4995754;28;20371;-89
2023/10/11 12:35:14;;;;;;;29.40;18.67;;;19.60;99.90;;;;;;4984659;28;20048;-89
2023/10/11 12:37:43;;;;;;;23.60;17.42;;;19.50;99.90;;;;;;4976420;28;20023;-89
2023/10/11 12:40:25;;;;;;;28.52;17.77;;;19.40;99.90;;;;;;4993672;28;20034;-89
2023/10/11 12:42:50;;;;;;;29.83;20.13;;;19.50;99.90;;;;;;4976516;28;20117;-88
2023/10/11 12:45:19;;;;;;;32.33;19.48;;;19.60;99.90;;;;;;4987553;28;20112;-89
2023/10/11 12:47:45;;;;;;;32.95;20.33;;;19.50;99.90;;;;;;4996006;28;20104;-89
2023/10/11 12:50:13;;;;;;;28.65;20.27;;;19.60;99.90;;;;;;5013183;28;20147;-89
2023/10/11 12:52:39;;;;;;;28.58;19.80;;;19.50;99.90;;;;;;4991610;28;20113;-88
2023/10/11 12:55:06;;;;;;;35.33;20.10;;;19.50;99.90;;;;;;4993154;28;20601;-89
2023/10/11 12:57:38;;;;;;;32.83;19.88;;;19.40;99.90;;;;;;5013284;28;20018;-89
2023/10/11 13:00:15;;;;;;;31.00;20.95;;;19.40;99.90;;;;;;4995594;28;20029;-88
2023/10/11 13:02:48;;;;;;;31.55;20.20;;;19.30;99.90;;;;;;4991279;28;20029;-90
2023/10/11 13:05:15;;;;;;;33.15;21.63;;;19.20;99.90;;;;;;4990259;28;20054;-88
2023/10/11 13:07:42;;;;;;;32.70;21.50;;;19.10;99.90;;;;;;4991060;28;20026;-89
2023/10/11 13:10:07;;;;;;;35.65;19.52;;;19.10;99.90;;;;;;4985917;28;20530;-89
2023/10/11 13:12:37;;;;;;;32.03;19.92;;;19.00;99.90;;;;;;4983252;28;20170;-88
2023/10/11 13:15:08;;;;;;;34.25;20.63;;;19.00;99.90;;;;;;4991077;28;20030;-88
2023/10/11 13:17:34;;;;;;;35.72;23.33;;;19.00;99.90;;;;;;4979804;28;20030;-88
2023/10/11 13:20:08;;;;;;;31.80;21.10;;;19.00;99.90;;;;;;4991653;28;20044;-88
2023/10/11 13:22:35;;;;;;;34.90;21.50;;;19.10;99.90;;;;;;4990974;28;20033;-88
2023/10/11 13:25:02;;;;;;;34.72;22.10;;;19.00;99.90;;;;;;4987604;28;20397;-89
2023/10/11 13:27:30;;;;;;;34.92;21.65;;;19.10;99.90;;;;;;4994902;28;20025;-88
2023/10/11 13:30:01;;;;;;;26.80;19.85;;;19.20;99.90;;;;;;4999391;28;20065;-88
2023/10/11 13:32:28;;;;;;;32.90;21.93;;;19.20;99.90;;;;;;4986905;28;20906;-89
2023/10/11 13:34:54;;;;;;;31.98;20.38;;;19.30;99.90;;;;;;4991936;28;20375;-89
2023/10/11 13:37:22;;;;;;;31.73;20.95;;;19.30;99.90;;;;;;5008368;28;20089;-90
2023/10/11 13:39:47;;;;;;;38.60;23.02;;;19.30;99.90;;;;;;4999531;28;20038;-88
2023/10/11 13:42:14;;;;;;;36.25;23.83;;;19.30;99.90;;;;;;4997275;28;20037;-89